Monticello Municipal Ellis Field
KLLQ : now visible

Airfield :











YOU CAN JOIN US ON...

 
LOGIN :

Register | Disclaimer

   EN    FR    IT 

 









Legend :    VFR   Marginal VFR   IFR   Intensive IFR   Very Intensive IFR
Visi :
Ceiling :
>= 8 km
>= 3000ft
5 to 8 km
1000 to 3000 ft
1500m to 5 km
500 to 1000 ft
800 to 1500m
200 to 500 ft
< 800m
< 200 ft
Symbols :   Thunderstorms  Fog  Heavy snow  Heavy precipitations  Wind > 20 kt






- Airport Elevation : 270 ft


KLLQ - Monticello Municipal Ellis Field

CURRENT METAR :
  • 241053Z AUTO VRB03KT 10SM OVC018 10/06 A3003 RMK AO2 SLP167 T01000061

EXPIRED METARs :
  • 240953Z AUTO 13004KT 10SM OVC017 10/06 A3003 RMK AO2 SLP169 T01000056
  • 240853Z AUTO 12004KT 10SM SCT019 BKN026 OVC080 10/05 A3004 RMK AO2 SLP172 T01000050 58010

TAF KLLQ
Valid from the 24 at 06:00 until the 25 at 06:00 UTC


240538Z 2406/2506 10004KT P6SM VCSH OVC015
FM241200 13004KT P6SM VCSH SCT007 OVC012
TEMPO 2412/2416 4SM BR OVC007
FM241800 13004KT P6SM VCSH OVC015
FM250000 13006KT 4SM -SHRA BR VCTS OVC012CB
KZME FIR / North America



MET'MAP, your aeronautical weather chart ! - Copyright ORBIFLY December 2007 - Disclaimer

ORBIFLY MET'MAP TEAM :

Programming & Development : Alexandra Zaïnal
Concept & original design : Baudouin d'Aumeries
Assistance for programming : Marc-Olivier Méhu
Technical & hardware support : Manuel Goepfert

Contact : metmap@orbifly.com




SOURCES & CREDITS :

   NOAA       Earth
Advisory